Beverley, Western Australia

8:05 AM WST on September 03, 2014 (GMT +0800)
York Western Australia | Change Station
CLOSE
Current Station
Personal Weather Station
Location: York, Western Australia
Elevation: 620 ft
Nearby Weather Stations

Elev 620 ft 31.86 °S, 116.76 °E | Updated 5 minutes ago

Clear
Clear
56.6 °F
Feels Like 56.6 °F
N
8.0
Wind Variable Wind from SE
Gusts 10.0 mph

Today
High -- | Low -- °F
--% Chance of Precip.
Yesterday
High -- | Low -- °F
Precip. -- in
6:27 AM 5:56 PM
First Quarter, 56% visible
Pressure 30.15 in
Visibility -9999.0 miles
Clouds
Dew Point 56 °F
Humidity 98%
Rainfall 0.00 in
Snow Depth Not available.
UV Not available.
Pollen Not available.
Air Quality Not available.
Flu Activity Not available.
METAR YPPH 022330Z 19008KT CAVOK 13/11 Q1021 RMK MIST ALONG RANGES

More Conditions Fewer Conditions

Pressure 30.15 in
Visibility -9999.0 miles
Clouds
Dew Point 56 °F
Humidity 98%
Rainfall 0.00 in
Snow Depth Not available.
UV Not available.
Pollen Not available.
Air Quality Not available.
Flu Activity Not available.
METAR YPPH 022330Z 19008KT CAVOK 13/11 Q1021 RMK MIST ALONG RANGES

More Conditions Fewer Conditions

10-Day Weather Forecast

Almanac

Astronomy

Sep. 03, 2014 Rise Set
Actual Time 6:27 AM WST 5:56 PM WST
Civil Twilight 6:02 AM WST 6:21 PM WST
Nautical Twilight 5:34 AM WST 6:49 PM WST
Astronomical Twilight 5:06 AM WST 7:18 PM WST
Moon 11:51 AM WST 1:02 AM WST
Length of Visible Light 12h 18m
Length of Day
11h 29m
Tomorrow will be 1m 52s longer.
First Quarter, 56% of the Moon is Illuminated
Sep 2
First Quarter
Sep 8
Full
Sep 15
Last Quarter
Sep 24
New
Oct 1
First Quarter

Yesterday's Extremes

Country Highs Country Lows

Community

WunderPhotos

Upload Photos

1,749,803 photos uploaded!

Nearby

Snow Depth

Not available.

Earthquake Activity

City Distance Mag. Time & Date
No recent earthquake activity has been reported nearby.
Minimum magnitude displayed is 2.5.

Coastal Water Temperatures

Place Temperature
No Stations Reporting

Nearby Weather Stations